sensor_id;sensor_type;location;lat;lon;timestamp;temperature;humidity
752;DHT22;360;48.764;9.164;2022-08-16T00:01:15;18.90;99.90
752;DHT22;360;48.764;9.164;2022-08-16T00:03:43;18.90;99.90
752;DHT22;360;48.764;9.164;2022-08-16T00:06:11;18.90;99.90
752;DHT22;360;48.764;9.164;2022-08-16T00:08:38;18.80;99.90
752;DHT22;360;48.764;9.164;2022-08-16T00:11:09;18.80;1.00
752;DHT22;360;48.764;9.164;2022-08-16T00:13:36;18.70;1.00
752;DHT22;360;48.764;9.164;2022-08-16T00:16:04;18.60;99.90
752;DHT22;360;48.764;9.164;2022-08-16T00:18:31;18.50;99.90
752;DHT22;360;48.764;9.164;2022-08-16T00:20:58;18.50;1.00
752;DHT22;360;48.764;9.164;2022-08-16T00:23:25;18.50;1.00
752;DHT22;360;48.764;9.164;2022-08-16T00:25:52;18.50;1.00
752;DHT22;360;48.764;9.164;2022-08-16T00:28:20;18.50;1.00
752;DHT22;360;48.764;9.164;2022-08-16T00:30:48;18.50;1.00
752;DHT22;360;48.764;9.164;2022-08-16T00:33:15;18.50;1.00
752;DHT22;360;48.764;9.164;2022-08-16T00:35:42;18.50;1.00
752;DHT22;360;48.764;9.164;2022-08-16T00:38:09;18.40;1.00
752;DHT22;360;48.764;9.164;2022-08-16T00:40:38;18.40;99.90
752;DHT22;360;48.764;9.164;2022-08-16T00:43:09;18.40;1.00
752;DHT22;360;48.764;9.164;2022-08-16T00:45:40;18.40;6.20
752;DHT22;360;48.764;9.164;2022-08-16T00:48:10;18.30;99.90
752;DHT22;360;48.764;9.164;2022-08-16T00:50:39;18.30;1.00
752;DHT22;360;48.764;9.164;2022-08-16T00:53:10;18.20;99.90
752;DHT22;360;48.764;9.164;2022-08-16T00:55:40;18.10;1.00
752;DHT22;360;48.764;9.164;2022-08-16T00:58:08;18.10;1.00
752;DHT22;360;48.764;9.164;2022-08-16T01:00:37;18.10;99.90
752;DHT22;360;48.764;9.164;2022-08-16T01:03:07;18.00;99.90
752;DHT22;360;48.764;9.164;2022-08-16T01:05:35;18.00;99.90
752;DHT22;360;48.764;9.164;2022-08-16T01:08:05;17.90;1.00
752;DHT22;360;48.764;9.164;2022-08-16T01:10:32;17.90;1.00
752;DHT22;360;48.764;9.164;2022-08-16T01:13:02;17.90;31.80
752;DHT22;360;48.764;9.164;2022-08-16T01:15:31;17.80;99.90
752;DHT22;360;48.764;9.164;2022-08-16T01:18:01;17.90;99.90
752;DHT22;360;48.764;9.164;2022-08-16T01:20:33;18.00;99.90
752;DHT22;360;48.764;9.164;2022-08-16T01:23:06;18.00;46.00
752;DHT22;360;48.764;9.164;2022-08-16T01:25:41;18.00;1.00
752;DHT22;360;48.764;9.164;2022-08-16T01:28:12;18.10;1.00
752;DHT22;360;48.764;9.164;2022-08-16T01:30:44;18.10;1.00
752;DHT22;360;48.764;9.164;2022-08-16T01:33:12;18.20;1.00
752;DHT22;360;48.764;9.164;2022-08-16T01:35:43;18.10;1.00
752;DHT22;360;48.764;9.164;2022-08-16T01:38:18;18.10;7.00
752;DHT22;360;48.764;9.164;2022-08-16T01:40:47;18.20;1.00
752;DHT22;360;48.764;9.164;2022-08-16T01:43:14;18.10;7.00
752;DHT22;360;48.764;9.164;2022-08-16T01:45:42;18.10;99.90
752;DHT22;360;48.764;9.164;2022-08-16T01:48:10;18.30;1.00
752;DHT22;360;48.764;9.164;2022-08-16T01:50:40;18.50;1.00
752;DHT22;360;48.764;9.164;2022-08-16T01:53:08;18.60;1.00
752;DHT22;360;48.764;9.164;2022-08-16T01:55:35;18.60;99.90
752;DHT22;360;48.764;9.164;2022-08-16T01:58:04;18.70;1.00
752;DHT22;360;48.764;9.164;2022-08-16T02:00:31;18.60;1.00
752;DHT22;360;48.764;9.164;2022-08-16T02:02:58;18.50;99.90
752;DHT22;360;48.764;9.164;2022-08-16T02:05:25;18.50;1.00
752;DHT22;360;48.764;9.164;2022-08-16T02:07:52;18.40;1.00
752;DHT22;360;48.764;9.164;2022-08-16T02:10:19;18.30;99.90
752;DHT22;360;48.764;9.164;2022-08-16T02:12:46;18.30;1.00
752;DHT22;360;48.764;9.164;2022-08-16T02:15:16;18.40;1.00
752;DHT22;360;48.764;9.164;2022-08-16T02:17:44;18.50;99.90
752;DHT22;360;48.764;9.164;2022-08-16T02:20:11;18.50;1.00
752;DHT22;360;48.764;9.164;2022-08-16T02:22:38;18.50;99.90
752;DHT22;360;48.764;9.164;2022-08-16T02:25:11;18.50;1.00
752;DHT22;360;48.764;9.164;2022-08-16T02:27:39;18.40;1.00
752;DHT22;360;48.764;9.164;2022-08-16T02:30:10;18.50;1.00
752;DHT22;360;48.764;9.164;2022-08-16T02:32:40;18.50;1.00
752;DHT22;360;48.764;9.164;2022-08-16T02:35:08;18.40;99.90
752;DHT22;360;48.764;9.164;2022-08-16T02:37:35;18.50;99.90
752;DHT22;360;48.764;9.164;2022-08-16T02:40:04;18.60;31.90
752;DHT22;360;48.764;9.164;2022-08-16T02:42:31;18.70;99.90
752;DHT22;360;48.764;9.164;2022-08-16T02:44:58;18.70;99.90
752;DHT22;360;48.764;9.164;2022-08-16T02:47:25;18.80;1.00
752;DHT22;360;48.764;9.164;2022-08-16T02:49:53;18.90;1.00
752;DHT22;360;48.764;9.164;2022-08-16T02:52:20;18.80;1.00
752;DHT22;360;48.764;9.164;2022-08-16T02:54:47;18.80;99.90
752;DHT22;360;48.764;9.164;2022-08-16T02:57:14;18.60;1.00
752;DHT22;360;48.764;9.164;2022-08-16T02:59:41;18.60;1.00
752;DHT22;360;48.764;9.164;2022-08-16T03:02:08;18.60;18.40
752;DHT22;360;48.764;9.164;2022-08-16T03:04:35;18.60;99.90
752;DHT22;360;48.764;9.164;2022-08-16T03:07:04;18.70;1.00
752;DHT22;360;48.764;9.164;2022-08-16T03:09:31;18.60;99.90
752;DHT22;360;48.764;9.164;2022-08-16T03:11:58;18.60;99.90
752;DHT22;360;48.764;9.164;2022-08-16T03:14:26;18.50;99.90
752;DHT22;360;48.764;9.164;2022-08-16T03:16:53;18.40;99.90
752;DHT22;360;48.764;9.164;2022-08-16T03:19:20;18.40;1.00
752;DHT22;360;48.764;9.164;2022-08-16T03:21:47;18.40;1.00
752;DHT22;360;48.764;9.164;2022-08-16T03:24:15;18.40;1.00
752;DHT22;360;48.764;9.164;2022-08-16T03:26:43;18.30;1.00
752;DHT22;360;48.764;9.164;2022-08-16T03:29:10;18.30;1.00
752;DHT22;360;48.764;9.164;2022-08-16T03:31:37;18.40;1.00
752;DHT22;360;48.764;9.164;2022-08-16T03:34:04;18.30;1.00
752;DHT22;360;48.764;9.164;2022-08-16T03:36:31;18.30;1.00
752;DHT22;360;48.764;9.164;2022-08-16T03:38:58;18.30;1.00
752;DHT22;360;48.764;9.164;2022-08-16T03:41:26;18.30;1.00
752;DHT22;360;48.764;9.164;2022-08-16T03:43:53;18.30;1.00
752;DHT22;360;48.764;9.164;2022-08-16T03:46:20;18.30;1.00
752;DHT22;360;48.764;9.164;2022-08-16T03:48:47;18.30;1.00
752;DHT22;360;48.764;9.164;2022-08-16T03:51:15;18.30;1.00
752;DHT22;360;48.764;9.164;2022-08-16T03:53:42;18.20;1.00
752;DHT22;360;48.764;9.164;2022-08-16T03:56:10;18.20;1.00
752;DHT22;360;48.764;9.164;2022-08-16T03:58:38;18.10;1.00
752;DHT22;360;48.764;9.164;2022-08-16T04:01:05;18.10;1.00
752;DHT22;360;48.764;9.164;2022-08-16T04:03:32;18.10;1.00
752;DHT22;360;48.764;9.164;2022-08-16T04:05:59;18.10;1.00
752;DHT22;360;48.764;9.164;2022-08-16T04:08:26;18.10;1.00
752;DHT22;360;48.764;9.164;2022-08-16T04:10:54;18.00;1.00
752;DHT22;360;48.764;9.164;2022-08-16T04:13:21;18.00;1.00
752;DHT22;360;48.764;9.164;2022-08-16T04:15:50;18.00;1.00
752;DHT22;360;48.764;9.164;2022-08-16T04:18:17;18.00;1.00
752;DHT22;360;48.764;9.164;2022-08-16T04:20:44;17.90;1.00
752;DHT22;360;48.764;9.164;2022-08-16T04:23:11;18.00;1.00
752;DHT22;360;48.764;9.164;2022-08-16T04:25:38;18.00;1.00
752;DHT22;360;48.764;9.164;2022-08-16T04:28:05;18.00;1.00
752;DHT22;360;48.764;9.164;2022-08-16T04:30:32;18.00;1.00
752;DHT22;360;48.764;9.164;2022-08-16T04:33:01;18.00;1.00
752;DHT22;360;48.764;9.164;2022-08-16T04:35:27;18.00;1.00
752;DHT22;360;48.764;9.164;2022-08-16T04:37:54;18.00;1.00
752;DHT22;360;48.764;9.164;2022-08-16T04:40:22;18.10;1.00
752;DHT22;360;48.764;9.164;2022-08-16T04:42:50;18.20;1.00
752;DHT22;360;48.764;9.164;2022-08-16T04:45:18;18.30;1.00
752;DHT22;360;48.764;9.164;2022-08-16T04:47:46;18.30;1.00
752;DHT22;360;48.764;9.164;2022-08-16T04:50:16;18.40;1.00
752;DHT22;360;48.764;9.164;2022-08-16T04:52:44;18.40;1.00
752;DHT22;360;48.764;9.164;2022-08-16T04:55:13;18.40;1.00
752;DHT22;360;48.764;9.164;2022-08-16T04:57:41;18.50;1.00
752;DHT22;360;48.764;9.164;2022-08-16T05:00:19;18.50;1.00
752;DHT22;360;48.764;9.164;2022-08-16T05:02:49;18.50;1.00
752;DHT22;360;48.764;9.164;2022-08-16T05:05:17;18.60;99.90
752;DHT22;360;48.764;9.164;2022-08-16T05:07:44;18.70;99.90
752;DHT22;360;48.764;9.164;2022-08-16T05:10:11;18.70;99.90
752;DHT22;360;48.764;9.164;2022-08-16T05:12:38;18.70;99.90
752;DHT22;360;48.764;9.164;2022-08-16T05:15:06;18.80;99.90
752;DHT22;360;48.764;9.164;2022-08-16T05:17:34;18.80;1.00
752;DHT22;360;48.764;9.164;2022-08-16T05:20:02;18.90;1.00
752;DHT22;360;48.764;9.164;2022-08-16T05:22:30;19.00;1.00
752;DHT22;360;48.764;9.164;2022-08-16T05:25:00;19.00;99.90
752;DHT22;360;48.764;9.164;2022-08-16T05:27:27;19.20;44.60
752;DHT22;360;48.764;9.164;2022-08-16T05:29:54;19.30;1.00
752;DHT22;360;48.764;9.164;2022-08-16T05:32:20;19.40;99.90
752;DHT22;360;48.764;9.164;2022-08-16T05:34:47;19.40;99.90
752;DHT22;360;48.764;9.164;2022-08-16T05:37:14;19.50;1.00
752;DHT22;360;48.764;9.164;2022-08-16T05:39:42;19.40;1.00
752;DHT22;360;48.764;9.164;2022-08-16T05:42:09;19.50;1.00
752;DHT22;360;48.764;9.164;2022-08-16T05:44:36;19.50;1.00
752;DHT22;360;48.764;9.164;2022-08-16T05:47:03;19.50;99.90
752;DHT22;360;48.764;9.164;2022-08-16T05:49:30;19.60;99.90
752;DHT22;360;48.764;9.164;2022-08-16T05:51:57;19.60;99.90
752;DHT22;360;48.764;9.164;2022-08-16T05:54:25;19.70;66.70
752;DHT22;360;48.764;9.164;2022-08-16T05:56:55;19.80;1.00
752;DHT22;360;48.764;9.164;2022-08-16T05:59:23;19.80;21.70
752;DHT22;360;48.764;9.164;2022-08-16T06:01:50;19.80;1.00
752;DHT22;360;48.764;9.164;2022-08-16T06:04:18;19.80;1.00
752;DHT22;360;48.764;9.164;2022-08-16T06:06:45;19.80;1.00
752;DHT22;360;48.764;9.164;2022-08-16T06:09:13;19.90;1.00
752;DHT22;360;48.764;9.164;2022-08-16T06:11:42;20.00;1.00
752;DHT22;360;48.764;9.164;2022-08-16T06:14:10;20.00;99.90
752;DHT22;360;48.764;9.164;2022-08-16T06:16:37;20.00;99.90
752;DHT22;360;48.764;9.164;2022-08-16T06:19:04;20.00;99.90
752;DHT22;360;48.764;9.164;2022-08-16T06:21:31;20.00;99.90
752;DHT22;360;48.764;9.164;2022-08-16T06:23:58;19.90;99.90
752;DHT22;360;48.764;9.164;2022-08-16T06:26:24;19.90;99.90
752;DHT22;360;48.764;9.164;2022-08-16T06:28:51;20.00;99.90
752;DHT22;360;48.764;9.164;2022-08-16T06:31:20;20.00;99.90
752;DHT22;360;48.764;9.164;2022-08-16T06:33:47;20.00;99.90
752;DHT22;360;48.764;9.164;2022-08-16T06:36:14;20.00;99.90
752;DHT22;360;48.764;9.164;2022-08-16T06:38:41;20.10;99.90
752;DHT22;360;48.764;9.164;2022-08-16T06:41:08;20.20;1.00
752;DHT22;360;48.764;9.164;2022-08-16T06:43:36;20.30;1.00
752;DHT22;360;48.764;9.164;2022-08-16T06:46:05;20.40;1.00
752;DHT22;360;48.764;9.164;2022-08-16T06:48:36;20.60;99.90
752;DHT22;360;48.764;9.164;2022-08-16T06:51:05;20.80;99.90
752;DHT22;360;48.764;9.164;2022-08-16T06:53:33;20.90;99.90
752;DHT22;360;48.764;9.164;2022-08-16T06:56:01;21.00;89.90
752;DHT22;360;48.764;9.164;2022-08-16T06:58:31;21.10;13.20
752;DHT22;360;48.764;9.164;2022-08-16T07:00:58;21.10;1.00
752;DHT22;360;48.764;9.164;2022-08-16T07:03:25;21.10;1.00
752;DHT22;360;48.764;9.164;2022-08-16T07:05:54;21.20;1.00
752;DHT22;360;48.764;9.164;2022-08-16T07:08:22;21.20;1.00
752;DHT22;360;48.764;9.164;2022-08-16T07:10:49;21.30;1.00
752;DHT22;360;48.764;9.164;2022-08-16T07:13:17;21.40;1.00
752;DHT22;360;48.764;9.164;2022-08-16T07:15:44;21.50;1.00
752;DHT22;360;48.764;9.164;2022-08-16T07:18:11;21.60;1.00
752;DHT22;360;48.764;9.164;2022-08-16T07:20:40;21.70;1.00
752;DHT22;360;48.764;9.164;2022-08-16T07:23:10;21.80;1.00
752;DHT22;360;48.764;9.164;2022-08-16T07:25:37;21.90;1.00
752;DHT22;360;48.764;9.164;2022-08-16T07:28:04;21.90;1.00
752;DHT22;360;48.764;9.164;2022-08-16T07:30:34;21.90;1.00
752;DHT22;360;48.764;9.164;2022-08-16T07:33:03;22.10;1.00
752;DHT22;360;48.764;9.164;2022-08-16T07:35:32;22.20;99.90
752;DHT22;360;48.764;9.164;2022-08-16T07:37:59;22.20;99.90
752;DHT22;360;48.764;9.164;2022-08-16T07:40:27;22.20;99.90
752;DHT22;360;48.764;9.164;2022-08-16T07:42:54;22.30;99.90
752;DHT22;360;48.764;9.164;2022-08-16T07:45:21;22.40;99.90
752;DHT22;360;48.764;9.164;2022-08-16T07:47:48;22.50;99.90
752;DHT22;360;48.764;9.164;2022-08-16T07:50:15;22.60;99.90
752;DHT22;360;48.764;9.164;2022-08-16T07:52:42;22.70;99.90
752;DHT22;360;48.764;9.164;2022-08-16T07:55:12;22.60;99.90
752;DHT22;360;48.764;9.164;2022-08-16T07:57:41;22.50;99.90
752;DHT22;360;48.764;9.164;2022-08-16T08:00:09;22.60;99.90
752;DHT22;360;48.764;9.164;2022-08-16T08:02:37;22.80;99.90
752;DHT22;360;48.764;9.164;2022-08-16T08:05:05;23.00;99.90
752;DHT22;360;48.764;9.164;2022-08-16T08:07:32;23.30;99.90
752;DHT22;360;48.764;9.164;2022-08-16T08:09:59;23.50;99.90
752;DHT22;360;48.764;9.164;2022-08-16T08:12:26;23.50;99.90
752;DHT22;360;48.764;9.164;2022-08-16T08:14:54;23.70;99.90
752;DHT22;360;48.764;9.164;2022-08-16T08:17:21;23.70;99.90
752;DHT22;360;48.764;9.164;2022-08-16T08:19:48;24.00;99.90
752;DHT22;360;48.764;9.164;2022-08-16T08:22:15;24.00;99.90
752;DHT22;360;48.764;9.164;2022-08-16T08:24:42;23.90;99.90
752;DHT22;360;48.764;9.164;2022-08-16T08:27:09;23.90;99.90
752;DHT22;360;48.764;9.164;2022-08-16T08:29:36;23.90;99.90
752;DHT22;360;48.764;9.164;2022-08-16T08:32:05;23.70;99.90
752;DHT22;360;48.764;9.164;2022-08-16T08:34:33;23.80;99.90
752;DHT22;360;48.764;9.164;2022-08-16T08:37:00;23.80;99.90
752;DHT22;360;48.764;9.164;2022-08-16T08:39:27;23.90;99.90
752;DHT22;360;48.764;9.164;2022-08-16T08:41:53;24.00;99.90
752;DHT22;360;48.764;9.164;2022-08-16T08:44:20;23.80;99.90
752;DHT22;360;48.764;9.164;2022-08-16T08:46:47;23.80;99.90
752;DHT22;360;48.764;9.164;2022-08-16T08:49:15;24.00;99.90
752;DHT22;360;48.764;9.164;2022-08-16T08:51:43;23.80;99.90
752;DHT22;360;48.764;9.164;2022-08-16T08:54:10;23.80;99.90
752;DHT22;360;48.764;9.164;2022-08-16T08:56:39;24.00;99.90
752;DHT22;360;48.764;9.164;2022-08-16T08:59:06;24.00;99.90
752;DHT22;360;48.764;9.164;2022-08-16T09:01:35;24.00;99.90
752;DHT22;360;48.764;9.164;2022-08-16T15:23:58;23.90;99.90
752;DHT22;360;48.764;9.164;2022-08-16T15:46:24;35.10;1.00
752;DHT22;360;48.764;9.164;2022-08-16T15:48:51;30.40;1.00
752;DHT22;360;48.764;9.164;2022-08-16T15:51:18;30.10;1.00
752;DHT22;360;48.764;9.164;2022-08-16T15:53:45;30.00;1.00
752;DHT22;360;48.764;9.164;2022-08-16T15:56:11;29.70;1.00
752;DHT22;360;48.764;9.164;2022-08-16T16:18:25;30.60;1.00
752;DHT22;360;48.764;9.164;2022-08-16T16:20:57;34.90;1.00
752;DHT22;360;48.764;9.164;2022-08-16T16:23:28;35.10;1.00
752;DHT22;360;48.764;9.164;2022-08-16T16:48:07;34.90;1.00
752;DHT22;360;48.764;9.164;2022-08-16T16:53:04;36.80;1.00
752;DHT22;360;48.764;9.164;2022-08-16T16:55:32;35.70;1.00
752;DHT22;360;48.764;9.164;2022-08-16T17:10:35;35.70;1.00
752;DHT22;360;48.764;9.164;2022-08-16T17:13:02;36.10;1.00
752;DHT22;360;48.764;9.164;2022-08-16T17:15:29;35.60;1.00
752;DHT22;360;48.764;9.164;2022-08-16T17:17:57;35.80;1.00
752;DHT22;360;48.764;9.164;2022-08-16T17:20:25;35.80;1.00
752;DHT22;360;48.764;9.164;2022-08-16T17:22:54;36.20;1.00
752;DHT22;360;48.764;9.164;2022-08-16T17:25:23;35.80;1.00
752;DHT22;360;48.764;9.164;2022-08-16T17:35:20;35.80;1.00
752;DHT22;360;48.764;9.164;2022-08-16T17:42:42;34.00;1.00
752;DHT22;360;48.764;9.164;2022-08-16T17:45:09;31.90;1.00
752;DHT22;360;48.764;9.164;2022-08-16T17:47:36;30.90;1.00
752;DHT22;360;48.764;9.164;2022-08-16T18:04:55;30.60;1.00
752;DHT22;360;48.764;9.164;2022-08-16T18:07:22;29.00;1.00
752;DHT22;360;48.764;9.164;2022-08-16T18:09:49;28.90;1.00
752;DHT22;360;48.764;9.164;2022-08-16T18:12:17;28.80;1.00
752;DHT22;360;48.764;9.164;2022-08-16T18:14:46;28.60;1.00
752;DHT22;360;48.764;9.164;2022-08-16T19:04:05;28.60;1.00
752;DHT22;360;48.764;9.164;2022-08-16T19:06:33;25.60;1.00
752;DHT22;360;48.764;9.164;2022-08-16T19:09:00;25.30;1.00
752;DHT22;360;48.764;9.164;2022-08-16T19:11:27;25.20;1.00
752;DHT22;360;48.764;9.164;2022-08-16T19:13:55;25.10;1.00
752;DHT22;360;48.764;9.164;2022-08-16T19:16:22;25.00;1.00
752;DHT22;360;48.764;9.164;2022-08-16T19:18:49;24.80;1.00
752;DHT22;360;48.764;9.164;2022-08-16T19:21:16;24.60;1.00
752;DHT22;360;48.764;9.164;2022-08-16T19:23:44;24.50;1.00
752;DHT22;360;48.764;9.164;2022-08-16T19:26:13;24.40;1.00
752;DHT22;360;48.764;9.164;2022-08-16T19:28:42;24.30;1.00
752;DHT22;360;48.764;9.164;2022-08-16T19:31:13;24.20;1.00
752;DHT22;360;48.764;9.164;2022-08-16T19:33:41;24.00;1.00
752;DHT22;360;48.764;9.164;2022-08-16T19:36:08;24.00;1.00
752;DHT22;360;48.764;9.164;2022-08-16T19:38:35;23.90;1.00
752;DHT22;360;48.764;9.164;2022-08-16T19:41:04;23.80;1.00
752;DHT22;360;48.764;9.164;2022-08-16T19:43:31;23.70;1.00
752;DHT22;360;48.764;9.164;2022-08-16T19:45:58;23.50;1.00
752;DHT22;360;48.764;9.164;2022-08-16T19:48:24;23.40;1.00
752;DHT22;360;48.764;9.164;2022-08-16T19:50:51;23.40;1.00
752;DHT22;360;48.764;9.164;2022-08-16T19:53:18;23.30;1.00
752;DHT22;360;48.764;9.164;2022-08-16T19:55:46;23.30;1.00
752;DHT22;360;48.764;9.164;2022-08-16T19:58:14;23.30;1.00
752;DHT22;360;48.764;9.164;2022-08-16T20:00:42;23.30;1.00
752;DHT22;360;48.764;9.164;2022-08-16T20:03:11;23.20;1.00
752;DHT22;360;48.764;9.164;2022-08-16T20:05:40;23.10;1.00
752;DHT22;360;48.764;9.164;2022-08-16T20:08:07;22.90;1.00
752;DHT22;360;48.764;9.164;2022-08-16T20:10:35;22.90;1.40
752;DHT22;360;48.764;9.164;2022-08-16T20:13:03;22.80;7.20
752;DHT22;360;48.764;9.164;2022-08-16T20:15:37;22.70;11.70
752;DHT22;360;48.764;9.164;2022-08-16T20:18:04;22.60;22.20
752;DHT22;360;48.764;9.164;2022-08-16T20:20:31;22.60;24.70
752;DHT22;360;48.764;9.164;2022-08-16T20:22:57;22.60;33.00
752;DHT22;360;48.764;9.164;2022-08-16T20:25:29;22.40;39.00
752;DHT22;360;48.764;9.164;2022-08-16T20:27:56;22.50;48.30
752;DHT22;360;48.764;9.164;2022-08-16T20:30:25;22.40;57.30
752;DHT22;360;48.764;9.164;2022-08-16T20:32:53;22.30;79.60
752;DHT22;360;48.764;9.164;2022-08-16T20:35:24;22.20;96.10
752;DHT22;360;48.764;9.164;2022-08-16T20:37:52;22.20;99.90
752;DHT22;360;48.764;9.164;2022-08-16T20:40:21;22.10;99.90
752;DHT22;360;48.764;9.164;2022-08-16T20:42:58;22.10;99.90
752;DHT22;360;48.764;9.164;2022-08-16T20:45:26;22.00;99.90
752;DHT22;360;48.764;9.164;2022-08-16T20:47:54;22.00;99.90
752;DHT22;360;48.764;9.164;2022-08-16T20:50:21;22.10;99.90
752;DHT22;360;48.764;9.164;2022-08-16T20:52:48;22.00;99.90
752;DHT22;360;48.764;9.164;2022-08-16T20:55:15;22.00;99.90
752;DHT22;360;48.764;9.164;2022-08-16T20:57:42;21.70;99.90
752;DHT22;360;48.764;9.164;2022-08-16T21:00:10;21.70;99.90
752;DHT22;360;48.764;9.164;2022-08-16T21:02:37;21.60;99.90
752;DHT22;360;48.764;9.164;2022-08-16T21:05:07;21.50;99.90
752;DHT22;360;48.764;9.164;2022-08-16T21:07:34;21.50;99.90
752;DHT22;360;48.764;9.164;2022-08-16T21:10:03;21.50;99.90
752;DHT22;360;48.764;9.164;2022-08-16T21:12:29;21.30;99.90
752;DHT22;360;48.764;9.164;2022-08-16T21:15:01;21.40;99.90
752;DHT22;360;48.764;9.164;2022-08-16T21:17:28;21.20;99.90
752;DHT22;360;48.764;9.164;2022-08-16T21:19:55;21.20;99.90
752;DHT22;360;48.764;9.164;2022-08-16T21:22:23;21.10;99.90
752;DHT22;360;48.764;9.164;2022-08-16T21:24:50;21.00;99.90
752;DHT22;360;48.764;9.164;2022-08-16T21:27:17;21.00;99.90
752;DHT22;360;48.764;9.164;2022-08-16T21:29:44;21.10;99.90
752;DHT22;360;48.764;9.164;2022-08-16T21:32:13;21.00;99.90
752;DHT22;360;48.764;9.164;2022-08-16T21:34:41;21.10;99.90
752;DHT22;360;48.764;9.164;2022-08-16T21:37:08;20.90;99.90
752;DHT22;360;48.764;9.164;2022-08-16T21:39:37;21.00;99.90
752;DHT22;360;48.764;9.164;2022-08-16T21:42:09;20.70;99.90
752;DHT22;360;48.764;9.164;2022-08-16T21:44:36;20.60;1.00
752;DHT22;360;48.764;9.164;2022-08-16T21:47:04;20.70;1.00
752;DHT22;360;48.764;9.164;2022-08-16T21:49:31;20.60;1.00
752;DHT22;360;48.764;9.164;2022-08-16T21:51:57;20.60;1.00
752;DHT22;360;48.764;9.164;2022-08-16T21:54:24;20.50;1.00
752;DHT22;360;48.764;9.164;2022-08-16T21:56:53;20.40;1.00
752;DHT22;360;48.764;9.164;2022-08-16T21:59:20;20.30;1.00
752;DHT22;360;48.764;9.164;2022-08-16T22:01:46;20.30;1.00
752;DHT22;360;48.764;9.164;2022-08-16T22:04:13;20.30;1.00
752;DHT22;360;48.764;9.164;2022-08-16T22:06:41;20.30;1.00
752;DHT22;360;48.764;9.164;2022-08-16T22:09:10;20.30;1.00
752;DHT22;360;48.764;9.164;2022-08-16T22:11:37;20.30;1.00
752;DHT22;360;48.764;9.164;2022-08-16T22:14:06;20.30;1.00
752;DHT22;360;48.764;9.164;2022-08-16T22:16:36;20.30;1.00
752;DHT22;360;48.764;9.164;2022-08-16T22:19:04;20.20;1.00
752;DHT22;360;48.764;9.164;2022-08-16T22:21:31;20.30;1.00
752;DHT22;360;48.764;9.164;2022-08-16T22:23:59;20.20;1.00
752;DHT22;360;48.764;9.164;2022-08-16T22:26:27;20.10;1.00
752;DHT22;360;48.764;9.164;2022-08-16T22:28:54;20.00;1.00
752;DHT22;360;48.764;9.164;2022-08-16T22:31:23;19.90;22.10
752;DHT22;360;48.764;9.164;2022-08-16T22:33:50;19.90;55.10
752;DHT22;360;48.764;9.164;2022-08-16T22:36:17;20.00;99.90
752;DHT22;360;48.764;9.164;2022-08-16T22:38:44;19.80;76.40
752;DHT22;360;48.764;9.164;2022-08-16T22:41:11;20.10;1.00
752;DHT22;360;48.764;9.164;2022-08-16T22:43:38;19.90;1.00
752;DHT22;360;48.764;9.164;2022-08-16T22:46:05;19.80;99.90
752;DHT22;360;48.764;9.164;2022-08-16T22:48:33;19.80;99.90
752;DHT22;360;48.764;9.164;2022-08-16T22:51:00;19.70;99.90
752;DHT22;360;48.764;9.164;2022-08-16T22:53:27;19.60;99.90
752;DHT22;360;48.764;9.164;2022-08-16T22:55:54;19.50;99.90
752;DHT22;360;48.764;9.164;2022-08-16T22:58:21;19.50;1.00
752;DHT22;360;48.764;9.164;2022-08-16T23:00:47;19.50;1.00
752;DHT22;360;48.764;9.164;2022-08-16T23:03:16;19.40;1.00
752;DHT22;360;48.764;9.164;2022-08-16T23:05:48;19.40;1.00
752;DHT22;360;48.764;9.164;2022-08-16T23:08:19;19.40;1.00
752;DHT22;360;48.764;9.164;2022-08-16T23:10:48;19.30;1.00
752;DHT22;360;48.764;9.164;2022-08-16T23:13:16;19.30;1.00
752;DHT22;360;48.764;9.164;2022-08-16T23:15:45;19.40;1.00
752;DHT22;360;48.764;9.164;2022-08-16T23:18:13;19.30;1.00
752;DHT22;360;48.764;9.164;2022-08-16T23:20:41;19.30;1.00
752;DHT22;360;48.764;9.164;2022-08-16T23:23:11;19.40;1.00
752;DHT22;360;48.764;9.164;2022-08-16T23:25:40;19.30;1.00
752;DHT22;360;48.764;9.164;2022-08-16T23:28:08;19.20;54.10
752;DHT22;360;48.764;9.164;2022-08-16T23:30:36;19.30;1.00
752;DHT22;360;48.764;9.164;2022-08-16T23:33:06;19.20;99.90
752;DHT22;360;48.764;9.164;2022-08-16T23:35:36;19.20;85.40
752;DHT22;360;48.764;9.164;2022-08-16T23:38:04;19.20;50.70
752;DHT22;360;48.764;9.164;2022-08-16T23:40:34;19.10;46.50
752;DHT22;360;48.764;9.164;2022-08-16T23:43:04;19.10;99.90
752;DHT22;360;48.764;9.164;2022-08-16T23:45:32;19.10;99.90
752;DHT22;360;48.764;9.164;2022-08-16T23:47:59;19.10;99.90
752;DHT22;360;48.764;9.164;2022-08-16T23:50:28;19.10;99.90
752;DHT22;360;48.764;9.164;2022-08-16T23:53:00;19.10;99.90
752;DHT22;360;48.764;9.164;2022-08-16T23:55:30;19.00;99.90
752;DHT22;360;48.764;9.164;2022-08-16T23:57:58;19.00;99.90
